Time;durP1;ratioP1;P1;durP2;ratioP2;P2;SDS_P1;SDS_P2;PMS_P1;PMS_P2;Temp;Humidity;BMP_temperature;BMP_pressure;BME280_temperature;BME280_humidity;BME280_pressure;Samples;Min_cycle;Max_cycle;Signal;HPM_P1;HPM_P2
2021/03/18 00:01:50;;;;;;;6.33;4.40;;;;;;;8.15;66.02;99831.45;1731553;80;21158;-61
2021/03/18 00:04:19;;;;;;;4.80;4.22;;;;;;;8.15;65.87;99835.38;1756915;80;22926;-61
2021/03/18 00:06:47;;;;;;;5.65;5.03;;;;;;;8.12;65.81;99836.73;1732111;80;21145;-60
2021/03/18 00:09:17;;;;;;;5.22;4.60;;;;;;;8.09;65.77;99833.70;1777646;80;21107;-60
2021/03/18 00:11:47;;;;;;;6.00;5.03;;;;;;;8.05;65.76;99832.45;1773784;80;21192;-61
2021/03/18 00:14:17;;;;;;;7.15;5.47;;;;;;;7.96;65.78;99832.54;1777109;80;21138;-60
2021/03/18 00:16:45;;;;;;;7.85;6.60;;;;;;;7.85;65.99;99828.75;1785332;80;21199;-60
2021/03/18 00:19:14;;;;;;;8.45;6.47;;;;;;;7.78;66.24;99829.70;1769426;80;21142;-60
2021/03/18 00:21:42;;;;;;;7.17;5.40;;;;;;;7.77;66.39;99832.77;1746876;81;21130;-61
2021/03/18 00:24:10;;;;;;;7.28;5.83;;;;;;;7.76;66.46;99823.17;1775667;80;21150;-60
2021/03/18 00:26:37;;;;;;;7.60;6.12;;;;;;;7.81;66.44;99825.73;1785726;80;21114;-60
2021/03/18 00:29:05;;;;;;;8.05;6.37;;;;;;;7.82;66.37;99819.63;1785601;80;21535;-60
2021/03/18 00:31:35;;;;;;;8.45;5.85;;;;;;;7.73;66.45;99822.79;1786041;79;21138;-60
2021/03/18 00:34:04;;;;;;;7.08;6.10;;;;;;;7.63;66.78;99816.34;1784835;80;21123;-60
2021/03/18 00:36:31;;;;;;;6.28;5.67;;;;;;;7.54;67.01;99817.30;1785614;80;21146;-60
2021/03/18 00:39:00;;;;;;;9.68;7.08;;;;;;;7.46;67.24;99820.45;1785666;80;21098;-60
2021/03/18 00:41:27;;;;;;;9.73;6.15;;;;;;;7.35;67.46;99817.95;1785639;80;21439;-60
2021/03/18 00:43:55;;;;;;;10.38;5.95;;;;;;;7.26;67.77;99818.02;1768427;80;21525;-61
2021/03/18 00:46:23;;;;;;;7.67;6.22;;;;;;;7.19;68.00;99818.08;1728305;80;21167;-59
2021/03/18 00:48:52;;;;;;;5.95;5.35;;;;;;;7.14;68.15;99815.08;1754549;81;21097;-58
2021/03/18 00:51:22;;;;;;;6.58;5.22;;;;;;;7.07;68.21;99814.70;1765455;79;21122;-59
2021/03/18 00:53:51;;;;;;;11.10;7.90;;;;;;;7.01;68.43;99818.27;1785650;79;21108;-59
2021/03/18 00:56:21;;;;;;;13.85;8.43;;;;;;;6.99;68.67;99822.62;1785097;79;21490;-52
2021/03/18 00:58:52;;;;;;;12.23;7.72;;;;;;;6.95;68.73;99827.47;1755917;81;25491;-54
2021/03/18 01:01:24;;;;;;;9.25;7.20;;;;;;;7.00;68.74;99828.28;1791783;79;21098;-52
2021/03/18 01:03:52;;;;;;;8.53;6.25;;;;;;;7.07;68.57;99829.09;1758712;79;21172;-53
2021/03/18 01:06:28;;;;;;;8.53;6.72;;;;;;;7.14;68.40;99829.05;1779506;79;21899;-53
2021/03/18 01:08:58;;;;;;;7.17;5.78;;;;;;;7.21;68.10;99830.73;1767913;79;21201;-53
2021/03/18 01:11:33;;;;;;;4.78;4.37;;;;;;;7.21;67.86;99825.50;1766484;80;21170;-52
2021/03/18 01:14:05;;;;;;;6.97;5.10;;;;;;;7.14;67.71;99829.05;1821557;77;21193;-53
2021/03/18 01:16:48;;;;;;;6.53;5.85;;;;;;;7.06;67.80;99828.68;1800618;79;21155;-54
2021/03/18 01:19:16;;;;;;;7.83;5.28;;;;;;;7.02;67.92;99831.74;1822605;78;21259;-54
2021/03/18 01:21:48;;;;;;;6.25;5.08;;;;;;;7.05;67.86;99838.25;1814232;78;21181;-54
2021/03/18 01:24:15;;;;;;;6.95;5.83;;;;;;;6.99;67.78;99835.69;1795396;79;21218;-53
2021/03/18 01:26:43;;;;;;;6.08;5.15;;;;;;;6.86;67.85;99838.87;1795309;79;21258;-53
2021/03/18 01:29:12;;;;;;;5.22;4.72;;;;;;;6.76;68.16;99833.27;1795347;79;21105;-53
2021/03/18 01:31:40;;;;;;;6.08;4.83;;;;;;;6.70;68.47;99835.48;1766575;79;22909;-53
2021/03/18 01:34:16;;;;;;;5.28;4.78;;;;;;;6.69;68.64;99835.94;1766066;81;21169;-53
2021/03/18 01:36:44;;;;;;;8.78;5.55;;;;;;;6.72;68.75;99836.33;1766060;81;21145;-52
2021/03/18 01:39:20;;;;;;;7.85;6.05;;;;;;;6.80;68.74;99840.19;1735810;80;21179;-51
2021/03/18 01:41:50;;;;;;;6.15;5.55;;;;;;;6.89;68.62;99838.84;1797008;78;21120;-52
2021/03/18 01:44:18;;;;;;;9.20;6.42;;;;;;;6.94;68.55;99837.49;1771510;78;21360;-52
2021/03/18 01:46:46;;;;;;;6.78;5.67;;;;;;;6.97;68.50;99837.47;1797233;79;21157;-52
2021/03/18 01:49:17;;;;;;;5.87;5.28;;;;;;;6.99;68.45;99833.97;1797693;79;21124;-52
2021/03/18 01:51:45;;;;;;;7.47;5.87;;;;;;;7.06;68.39;99829.53;1796680;79;21190;-53
2021/03/18 01:54:13;;;;;;;5.80;5.10;;;;;;;7.13;68.29;99839.52;1797488;79;21152;-53
2021/03/18 01:56:41;;;;;;;6.72;5.87;;;;;;;7.19;68.34;99834.23;1784168;79;22245;-52
2021/03/18 01:59:09;;;;;;;7.05;5.65;;;;;;;7.21;68.24;99836.38;1784830;79;21166;-53
2021/03/18 02:01:36;;;;;;;6.58;5.42;;;;;;;7.24;68.33;99835.05;1797220;78;21158;-53
2021/03/18 02:04:13;;;;;;;5.97;5.37;;;;;;;7.20;68.29;99836.83;1802233;77;21518;-52
2021/03/18 02:06:45;;;;;;;6.22;5.30;;;;;;;7.19;68.33;99844.24;1797436;78;21345;-52
2021/03/18 02:09:15;;;;;;;5.35;4.47;;;;;;;7.21;68.39;99838.58;1794686;78;21312;-52
2021/03/18 02:11:47;;;;;;;6.50;5.42;;;;;;;7.28;68.34;99847.22;1795879;78;21268;-52
2021/03/18 02:14:21;;;;;;;5.72;4.72;;;;;;;7.32;68.27;99850.67;1799579;78;21110;-52
2021/03/18 02:16:51;;;;;;;6.47;5.42;;;;;;;7.33;68.15;99856.34;1754600;80;21162;-52
2021/03/18 02:19:46;;;;;;;9.13;6.58;;;;;;;7.34;67.94;99855.47;1795231;78;21150;-52
2021/03/18 02:22:58;;;;;;;7.85;5.92;;;;;;;7.31;67.87;99858.97;1777444;79;22495;-53
2021/03/18 02:25:28;;;;;;;7.67;5.72;;;;;;;7.26;67.83;99860.77;1826800;78;22265;-53
2021/03/18 02:28:16;;;;;;;6.80;5.45;;;;;;;7.25;67.82;99858.17;1828051;78;21620;-52
2021/03/18 02:31:05;;;;;;;6.03;5.12;;;;;;;7.28;67.79;99865.99;1778912;78;21560;-52
2021/03/18 02:34:09;;;;;;;6.92;5.60;;;;;;;7.32;67.68;99863.33;1765700;81;21167;-53
2021/03/18 02:36:46;;;;;;;7.75;5.90;;;;;;;7.34;67.57;99869.41;1765709;81;22293;-53
2021/03/18 02:39:26;;;;;;;6.12;5.53;;;;;;;7.35;67.48;99866.38;1808941;78;21098;-53
2021/03/18 02:41:59;;;;;;;6.40;5.80;;;;;;;7.33;67.46;99867.69;1799736;78;21150;-53
2021/03/18 02:44:28;;;;;;;6.42;5.50;;;;;;;7.32;67.53;99871.18;1797317;79;21137;-52
2021/03/18 02:47:04;;;;;;;7.12;6.42;;;;;;;7.29;67.56;99875.55;1797735;79;21150;-53
2021/03/18 02:49:43;;;;;;;8.40;5.90;;;;;;;7.27;67.75;99876.02;1797286;79;21926;-52
2021/03/18 02:52:14;;;;;;;9.40;6.45;;;;;;;7.29;67.88;99876.86;1795949;79;21556;-53
2021/03/18 02:54:42;;;;;;;9.58;6.28;;;;;;;7.23;68.14;99880.42;1797671;79;21146;-53
2021/03/18 02:57:11;;;;;;;7.47;5.97;;;;;;;7.17;68.48;99881.34;1797652;79;21403;-53
2021/03/18 02:59:40;;;;;;;8.93;6.95;;;;;;;7.12;68.76;99882.25;1797847;79;21529;-53
2021/03/18 03:02:12;;;;;;;11.63;7.25;;;;;;;7.09;69.04;99881.83;1767557;79;21183;-53
2021/03/18 03:04:47;;;;;;;8.13;7.00;;;;;;;7.06;69.22;99885.77;1784350;80;21193;-53
2021/03/18 03:07:20;;;;;;;9.10;7.10;;;;;;;7.05;69.35;99886.64;1783519;79;21146;-53
2021/03/18 03:09:47;;;;;;;10.60;7.25;;;;;;;7.10;69.40;99890.11;1783740;80;21143;-53
2021/03/18 03:12:18;;;;;;;8.05;7.25;;;;;;;7.17;69.40;99885.27;1737998;81;21108;-53
2021/03/18 03:14:46;;;;;;;7.92;7.12;;;;;;;7.22;69.37;99885.22;1791308;78;21384;-53
2021/03/18 03:17:16;;;;;;;9.38;7.00;;;;;;;7.25;69.30;99889.57;1776441;79;21162;-53
2021/03/18 03:19:44;;;;;;;9.43;7.55;;;;;;;7.24;69.34;99892.61;1775769;79;21264;-53
2021/03/18 03:22:12;;;;;;;9.10;7.37;;;;;;;7.22;69.42;99892.62;1781498;79;21111;-53
2021/03/18 03:24:41;;;;;;;8.35;6.80;;;;;;;7.17;69.55;99889.61;1784918;79;21166;-53
2021/03/18 03:27:09;;;;;;;9.60;7.92;;;;;;;7.15;69.69;99886.15;1780240;79;21206;-53
2021/03/18 03:29:36;;;;;;;7.87;7.08;;;;;;;7.10;69.80;99891.87;1780023;79;21177;-52
2021/03/18 03:32:06;;;;;;;10.30;7.65;;;;;;;7.04;69.99;99887.55;1779381;80;21119;-52
2021/03/18 03:34:34;;;;;;;11.43;8.13;;;;;;;7.02;70.20;99887.98;1780117;80;21170;-53
2021/03/18 03:37:02;;;;;;;13.90;9.43;;;;;;;6.99;70.33;99892.81;1780174;80;21099;-53
2021/03/18 03:39:30;;;;;;;15.72;10.40;;;;;;;6.95;70.52;99888.48;1780139;80;22912;-53
2021/03/18 03:41:58;;;;;;;10.53;7.75;;;;;;;6.91;70.68;99885.90;1755267;80;21369;-53
2021/03/18 03:44:26;;;;;;;10.53;8.65;;;;;;;6.86;70.91;99890.71;1746830;82;21161;-53
2021/03/18 03:46:55;;;;;;;11.97;8.18;;;;;;;6.85;71.20;99890.27;1754497;81;21165;-53
2021/03/18 03:49:23;;;;;;;9.73;8.43;;;;;;;6.87;71.38;99892.88;1734759;82;21130;-53
2021/03/18 03:52:20;;;;;;;12.43;9.50;;;;;;;6.89;71.55;99891.56;1754635;81;21436;-53
2021/03/18 03:54:56;;;;;;;10.35;9.25;;;;;;;6.89;71.61;99894.17;1754508;81;21608;-54
2021/03/18 03:57:50;;;;;;;11.05;9.93;;;;;;;6.88;71.70;99890.70;1754246;81;21146;-54
2021/03/18 04:00:18;;;;;;;8.85;7.70;;;;;;;6.85;71.81;99890.27;1778577;80;21485;-53
2021/03/18 04:02:50;;;;;;;10.90;7.75;;;;;;;6.87;71.93;99890.27;1785539;80;21134;-54
2021/03/18 04:05:19;;;;;;;9.73;8.18;;;;;;;6.88;71.98;99895.94;1794733;78;21413;-54
2021/03/18 04:07:47;;;;;;;11.25;9.35;;;;;;;6.91;72.05;99900.28;1784295;80;21169;-53
2021/03/18 04:10:17;;;;;;;18.23;11.65;;;;;;;6.88;72.11;99896.38;1758451;80;21193;-53
2021/03/18 04:12:46;;;;;;;16.00;11.05;;;;;;;6.87;72.17;99892.88;1758056;80;21264;-53
2021/03/18 04:15:16;;;;;;;10.93;9.50;;;;;;;6.89;72.24;99896.79;1785673;80;21530;-53
2021/03/18 04:17:48;;;;;;;9.85;8.00;;;;;;;6.90;72.35;99903.31;1785666;79;21304;-53
2021/03/18 04:20:18;;;;;;;9.80;8.38;;;;;;;6.91;72.35;99902.89;1772686;79;21193;-53
2021/03/18 04:22:51;;;;;;;10.65;8.10;;;;;;;6.93;72.39;99909.83;1789497;80;21134;-54
2021/03/18 04:25:24;;;;;;;9.55;7.55;;;;;;;6.96;72.37;99907.64;1761725;80;21157;-53
2021/03/18 04:27:52;;;;;;;11.18;8.00;;;;;;;7.02;72.25;99918.05;1781210;79;21169;-54
2021/03/18 04:30:21;;;;;;;9.40;8.28;;;;;;;7.06;72.16;99924.16;1742869;80;21911;-53
2021/03/18 04:32:48;;;;;;;14.98;7.55;;;;;;;7.08;71.96;99925.00;1756084;81;21233;-54
2021/03/18 04:35:17;;;;;;;13.22;8.35;;;;;;;7.12;71.80;99924.11;1749483;82;21463;-54
2021/03/18 04:37:45;;;;;;;9.63;8.00;;;;;;;7.16;71.67;99926.69;1726510;81;21174;-54
2021/03/18 04:40:15;;;;;;;13.13;8.65;;;;;;;7.22;71.44;99926.63;1758597;81;21111;-54
2021/03/18 04:42:43;;;;;;;11.83;9.10;;;;;;;7.26;71.37;99925.30;1789489;80;21182;-54
2021/03/18 04:45:13;;;;;;;13.70;9.33;;;;;;;7.28;71.32;99923.56;1789400;80;21142;-53
2021/03/18 04:47:44;;;;;;;12.75;10.38;;;;;;;7.32;71.32;99931.78;1786196;80;21545;-53
2021/03/18 04:50:13;;;;;;;11.88;9.90;;;;;;;7.39;71.15;99936.09;1799521;78;21316;-53
2021/03/18 04:52:41;;;;;;;12.18;9.05;;;;;;;7.41;70.80;99936.97;1769718;81;21139;-53
2021/03/18 04:55:11;;;;;;;11.48;9.85;;;;;;;7.41;70.77;99933.05;1789552;80;21974;-54
2021/03/18 04:57:42;;;;;;;12.10;8.98;;;;;;;7.48;70.67;99926.88;1789474;80;21150;-53
2021/03/18 05:00:12;;;;;;;12.03;10.55;;;;;;;7.56;70.44;99936.83;1769247;80;21165;-54
2021/03/18 05:02:40;;;;;;;16.67;12.15;;;;;;;7.57;70.21;99946.43;1764122;81;21170;-54
2021/03/18 05:05:15;;;;;;;15.10;11.05;;;;;;;7.56;70.28;99943.38;1782751;79;21157;-53
2021/03/18 05:07:45;;;;;;;15.65;10.63;;;;;;;7.57;70.26;99949.47;1780844;79;22091;-53
2021/03/18 05:10:19;;;;;;;13.62;9.85;;;;;;;7.56;70.23;99955.16;1782406;79;21202;-54
2021/03/18 05:12:47;;;;;;;11.93;9.98;;;;;;;7.50;70.32;99954.36;1801488;78;21174;-53
2021/03/18 05:15:15;;;;;;;11.75;9.15;;;;;;;7.43;70.48;99957.45;1777124;79;21122;-52
2021/03/18 05:17:43;;;;;;;13.90;11.15;;;;;;;7.38;70.74;99964.03;1768343;79;21177;-52
2021/03/18 05:20:13;;;;;;;10.72;9.40;;;;;;;7.37;70.87;99966.66;1784378;78;21190;-52
2021/03/18 05:22:43;;;;;;;11.73;9.45;;;;;;;7.38;70.95;99964.03;1777950;79;21285;-52
2021/03/18 05:25:12;;;;;;;10.75;9.15;;;;;;;7.37;70.91;99970.13;1720433;79;21178;-52
2021/03/18 05:27:41;;;;;;;11.73;8.88;;;;;;;7.36;71.02;99972.34;1775250;79;21161;-52
2021/03/18 05:30:10;;;;;;;10.70;8.95;;;;;;;7.37;71.06;99974.51;1775394;80;21193;-52
2021/03/18 05:32:38;;;;;;;10.70;9.63;;;;;;;7.36;71.10;99979.30;1775226;79;22127;-52
2021/03/18 05:35:08;;;;;;;12.30;8.93;;;;;;;7.37;71.18;99977.13;1776080;80;21195;-52
2021/03/18 05:37:38;;;;;;;10.15;9.00;;;;;;;7.39;71.33;99983.20;1776355;79;21171;-51
2021/03/18 05:40:18;;;;;;;10.85;9.65;;;;;;;7.40;71.40;99980.58;1775408;79;21221;-52
2021/03/18 05:42:47;;;;;;;12.15;10.23;;;;;;;7.46;71.45;99986.21;1775160;79;21146;-52
2021/03/18 05:45:18;;;;;;;21.27;14.85;;;;;;;7.51;71.50;99991.41;1776105;79;21210;-52
2021/03/18 05:47:51;;;;;;;27.93;17.27;;;;;;;7.52;71.60;99988.77;1775476;79;22339;-52
2021/03/18 05:50:22;;;;;;;25.00;18.07;;;;;;;7.59;71.71;99993.54;1775796;79;21115;-59
2021/03/18 05:52:50;;;;;;;33.08;21.80;;;;;;;7.66;71.77;99991.30;1775717;79;21226;-60
2021/03/18 05:55:22;;;;;;;36.33;21.57;;;;;;;7.70;71.93;99995.61;1775957;80;21119;-61
2021/03/18 05:57:50;;;;;;;50.75;26.70;;;;;;;7.70;72.18;99994.30;1775886;79;21187;-61
2021/03/18 06:00:19;;;;;;;48.42;26.00;;;;;;;7.69;72.54;100007.41;1774981;79;21213;-61
2021/03/18 06:02:56;;;;;;;50.35;27.07;;;;;;;7.69;72.88;99999.13;1774805;79;21204;-61
2021/03/18 06:05:33;;;;;;;52.53;27.82;;;;;;;7.75;73.21;100006.08;1747991;80;21199;-59
2021/03/18 06:08:01;;;;;;;57.45;28.52;;;;;;;7.72;73.50;100001.72;1773966;79;21569;-58
2021/03/18 06:10:28;;;;;;;57.95;28.73;;;;;;;7.70;73.69;100006.53;1771662;79;21229;-58
2021/03/18 06:12:56;;;;;;;50.12;26.17;;;;;;;7.73;73.68;100002.16;1774544;79;21722;-62
2021/03/18 06:15:24;;;;;;;53.85;27.17;;;;;;;7.82;73.68;100010.80;1775030;80;21174;-59
2021/03/18 06:17:56;;;;;;;58.38;31.62;;;;;;;7.88;73.65;100006.81;1772471;79;21219;-59
2021/03/18 06:20:30;;;;;;;53.50;29.57;;;;;;;7.92;73.66;100009.84;1774607;80;21170;-60
2021/03/18 06:25:37;;;;;;;62.73;30.30;;;;;;;7.87;73.91;100009.03;1858852;75;21550;-64
2021/03/18 06:28:23;;;;;;;62.55;31.05;;;;;;;7.86;74.03;100016.00;1789107;79;21135;-52
2021/03/18 06:31:13;;;;;;;62.05;32.33;;;;;;;7.87;73.91;100017.74;1786519;78;22173;-51
2021/03/18 06:33:48;;;;;;;54.20;27.90;;;;;;;7.88;73.78;100021.22;1809336;78;21197;-54
2021/03/18 06:36:40;;;;;;;53.73;28.52;;;;;;;7.82;73.57;100024.75;1786370;79;21218;-52
2021/03/18 06:39:12;;;;;;;52.55;31.00;;;;;;;7.71;73.67;100022.69;1776055;79;21178;-52
2021/03/18 06:41:44;;;;;;;59.15;29.23;;;;;;;7.73;73.76;100027.03;1783326;79;21202;-52
2021/03/18 06:44:31;;;;;;;48.10;27.77;;;;;;;7.78;73.66;100028.72;1817850;78;21358;-51
2021/03/18 06:47:10;;;;;;;48.17;29.42;;;;;;;7.77;73.59;100033.10;1787216;78;21147;-62
2021/03/18 06:49:38;;;;;;;44.45;26.73;;;;;;;7.76;73.44;100032.67;1785792;79;21163;-61
2021/03/18 06:52:11;;;;;;;37.75;24.57;;;;;;;7.73;73.21;100037.52;1763289;80;21179;-60
2021/03/18 06:54:44;;;;;;;33.50;20.55;;;;;;;7.70;72.83;100047.98;1790348;78;21463;-63
2021/03/18 06:57:14;;;;;;;30.52;20.52;;;;;;;7.69;72.74;100045.38;1776248;79;21275;-63
2021/03/18 06:59:42;;;;;;;30.32;20.62;;;;;;;7.72;72.48;100045.38;1767188;80;21181;-62
2021/03/18 07:02:16;;;;;;;26.80;20.00;;;;;;;7.66;72.24;100041.47;1780524;79;21192;-62
2021/03/18 07:05:11;;;;;;;30.80;20.23;;;;;;;7.64;72.41;100057.64;1775627;80;21131;-63
2021/03/18 07:07:39;;;;;;;30.12;19.95;;;;;;;7.64;72.35;100057.64;1776759;79;21370;-61
2021/03/18 07:10:09;;;;;;;27.62;19.15;;;;;;;7.66;72.22;100042.78;1778578;79;21890;-61
2021/03/18 07:12:37;;;;;;;31.97;20.65;;;;;;;7.72;72.18;100050.62;1770825;79;21171;-61
2021/03/18 07:15:15;;;;;;;30.17;20.37;;;;;;;7.79;72.11;100047.50;1778121;80;21186;-63
2021/03/18 07:17:42;;;;;;;30.60;20.75;;;;;;;7.83;71.88;100054.45;1780677;79;21178;-63
2021/03/18 07:20:21;;;;;;;34.00;20.92;;;;;;;7.87;71.72;100060.10;1768633;80;21187;-62
2021/03/18 07:22:54;;;;;;;31.70;20.80;;;;;;;7.88;71.23;100056.16;1789785;79;21213;-60
2021/03/18 07:25:28;;;;;;;30.02;19.80;;;;;;;7.81;70.86;100054.88;1793847;79;21252;-61
2021/03/18 07:28:03;;;;;;;30.15;19.57;;;;;;;7.77;70.98;100067.15;1801186;78;21810;-61
2021/03/18 07:30:35;;;;;;;28.32;18.48;;;;;;;7.74;70.74;100078.50;1777304;79;21142;-60
2021/03/18 07:33:03;;;;;;;26.75;18.10;;;;;;;7.70;70.38;100073.30;1786982;79;21205;-62
2021/03/18 07:35:33;;;;;;;31.68;20.37;;;;;;;7.60;70.06;100089.95;1772854;80;21287;-62
2021/03/18 07:38:02;;;;;;;31.12;20.88;;;;;;;7.42;70.16;100085.70;1806770;78;21216;-62
2021/03/18 07:40:30;;;;;;;29.52;20.48;;;;;;;7.32;70.41;100087.49;1769887;80;21110;-65
2021/03/18 07:42:59;;;;;;;30.12;19.95;;;;;;;7.25;70.56;100096.28;1760880;80;21145;-63
2021/03/18 07:45:27;;;;;;;28.80;20.15;;;;;;;7.18;70.73;100092.80;1776187;79;21178;-62
2021/03/18 07:47:56;;;;;;;30.52;20.25;;;;;;;7.16;70.84;100096.73;1760824;81;21227;-60
2021/03/18 07:50:33;;;;;;;34.27;24.92;;;;;;;7.14;70.98;100093.69;1784529;79;21254;-61
2021/03/18 07:53:01;;;;;;;47.45;32.98;;;;;;;7.13;70.99;100094.14;1762833;81;21194;-62
2021/03/18 07:55:32;;;;;;;37.05;25.30;;;;;;;7.12;71.01;100091.53;1764331;79;21193;-61
2021/03/18 07:58:00;;;;;;;38.10;25.70;;;;;;;7.08;71.19;100095.03;1755242;81;21614;-64
2021/03/18 08:00:32;;;;;;;33.98;23.05;;;;;;;7.12;71.12;100095.45;1787571;79;22468;-63
2021/03/18 08:03:23;;;;;;;31.33;21.55;;;;;;;7.13;71.07;100086.74;1748568;79;21224;-63
2021/03/18 08:05:55;;;;;;;28.55;20.57;;;;;;;7.09;71.17;100092.41;1758024;79;21233;-61
2021/03/18 08:08:36;;;;;;;29.55;21.10;;;;;;;7.13;71.43;100093.28;1780356;80;21178;-60
2021/03/18 08:11:06;;;;;;;27.15;19.77;;;;;;;7.22;71.35;100098.46;1797460;78;21192;-64
2021/03/18 08:13:38;;;;;;;31.50;22.15;;;;;;;7.21;70.99;100099.33;1788479;80;21375;-60
2021/03/18 08:16:28;;;;;;;28.52;20.90;;;;;;;7.17;70.93;100097.18;1799568;79;21213;-59
2021/03/18 08:18:56;;;;;;;26.80;19.23;;;;;;;7.12;71.08;100096.31;1790694;80;21150;-59
2021/03/18 08:21:45;;;;;;;27.93;19.65;;;;;;;7.12;70.85;100113.77;1793037;80;21179;-59
2021/03/18 08:24:27;;;;;;;27.95;19.30;;;;;;;7.09;70.96;100099.39;1789615;80;21190;-61
2021/03/18 08:27:08;;;;;;;30.92;21.68;;;;;;;7.04;71.18;100100.73;1799198;78;21193;-60
2021/03/18 08:29:46;;;;;;;29.60;21.40;;;;;;;6.94;71.59;100094.65;1792568;80;21154;-61
2021/03/18 08:32:30;;;;;;;32.17;21.42;;;;;;;6.88;71.74;100102.52;1790878;80;21194;-59
2021/03/18 08:35:01;;;;;;;29.55;19.77;;;;;;;6.91;71.79;100102.50;1799765;79;21201;-59
2021/03/18 08:37:47;;;;;;;29.50;19.77;;;;;;;6.97;71.66;100116.00;1789416;80;21151;-59
2021/03/18 08:40:28;;;;;;;25.62;18.45;;;;;;;6.95;71.69;100096.84;1790743;80;21210;-59
2021/03/18 08:43:07;;;;;;;29.82;20.25;;;;;;;6.96;71.84;100116.88;1789698;80;21162;-60
2021/03/18 08:45:38;;;;;;;26.75;20.20;;;;;;;6.92;71.83;100105.56;1790706;80;21214;-59
2021/03/18 08:48:13;;;;;;;26.45;20.68;;;;;;;6.98;72.04;100112.52;1791705;80;21600;-59
2021/03/18 08:50:47;;;;;;;28.02;20.52;;;;;;;7.03;72.09;100107.69;1793143;80;21201;-61
2021/03/18 08:53:33;;;;;;;26.70;19.60;;;;;;;7.06;72.16;100105.50;1791743;80;22266;-60
2021/03/18 08:56:03;;;;;;;26.77;19.65;;;;;;;7.10;72.23;100116.39;1781384;79;21625;-60
2021/03/18 08:58:44;;;;;;;25.35;19.45;;;;;;;7.13;72.78;100120.30;1779988;79;21127;-60
2021/03/18 09:01:20;;;;;;;22.70;18.65;;;;;;;7.26;72.57;100117.20;1842019;76;22382;-60
2021/03/18 09:03:55;;;;;;;25.17;18.73;;;;;;;7.28;72.26;100122.43;1814237;77;21221;-63
2021/03/18 09:06:30;;;;;;;24.55;19.07;;;;;;;7.35;72.04;100126.77;1816628;76;21179;-61
2021/03/18 09:08:58;;;;;;;20.62;15.75;;;;;;;7.36;71.48;100130.68;1754410;79;21204;-62
2021/03/18 09:11:26;;;;;;;20.60;15.98;;;;;;;7.30;71.63;100130.68;1756303;80;21179;-60
2021/03/18 09:13:54;;;;;;;22.73;17.60;;;;;;;7.34;71.96;100140.71;1752494;80;21181;-61
2021/03/18 09:16:22;;;;;;;23.50;17.37;;;;;;;7.35;72.07;100137.23;1756353;79;21221;-60
2021/03/18 09:18:59;;;;;;;21.70;16.07;;;;;;;7.31;72.15;100140.73;1757304;79;21247;-60
2021/03/18 09:21:31;;;;;;;20.80;15.75;;;;;;;7.25;72.04;100143.38;1755127;79;21177;-61
2021/03/18 09:23:59;;;;;;;;;;;;;;;7.27;72.99;100138.55;1735418;80;21572;-53
2021/03/18 09:26:28;;;;;;;21.48;15.43;;;;;;;7.19;72.89;100139.03;1762457;79;20488;-55
2021/03/18 09:28:58;;;;;;;17.65;14.10;;;;;;;7.04;73.08;100144.74;1755286;79;21178;-51
2021/03/18 09:31:26;;;;;;;18.95;14.83;;;;;;;6.97;73.58;100135.63;1755468;79;22054;-53
2021/03/18 09:33:55;;;;;;;19.30;15.10;;;;;;;6.97;73.34;100141.71;1758548;79;21511;-53
2021/03/18 09:36:28;;;;;;;17.77;14.05;;;;;;;6.91;78.50;100158.73;1765276;79;21201;-52
2021/03/18 09:39:12;;;;;;;17.02;13.40;;;;;;;6.81;80.54;100146.14;1757406;79;21189;-52
2021/03/18 09:41:48;;;;;;;16.20;13.05;;;;;;;6.74;81.23;100153.56;1728089;80;21208;-52
2021/03/18 09:44:23;;;;;;;15.18;12.35;;;;;;;6.68;82.10;100149.62;1736789;80;22944;-54
2021/03/18 09:46:55;;;;;;;18.42;13.62;;;;;;;6.72;83.01;100151.36;1734721;80;21761;-53
2021/03/18 09:49:42;;;;;;;13.93;11.15;;;;;;;6.85;83.19;100156.14;1858538;76;22041;-54
2021/03/18 09:52:12;;;;;;;19.25;13.65;;;;;;;6.85;82.74;100160.06;1874646;75;21148;-52
2021/03/18 09:54:40;;;;;;;13.90;10.93;;;;;;;6.83;83.07;100140.45;1869409;75;21183;-53
2021/03/18 09:57:09;;;;;;;14.18;10.53;;;;;;;7.10;85.21;100158.25;1869778;75;21148;-53
2021/03/18 09:59:37;;;;;;;13.18;10.43;;;;;;;7.52;85.85;100155.00;1880901;75;21201;-53
2021/03/18 10:02:06;;;;;;;14.87;11.22;;;;;;;7.93;86.00;100157.83;1879134;75;21239;-53
2021/03/18 10:04:44;;;;;;;13.25;11.08;;;;;;;8.30;86.00;100159.73;1867138;75;21188;-51
2021/03/18 10:07:14;;;;;;;11.88;10.28;;;;;;;8.62;85.91;100159.07;1876003;75;21165;-53
2021/03/18 10:09:47;;;;;;;12.47;10.13;;;;;;;8.88;85.63;100157.92;1883101;75;21048;-53
2021/03/18 10:15:06;;;;;;;9.98;8.93;;;;;;;9.37;83.99;100164.80;1855151;75;22785;-53
2021/03/18 10:17:37;;;;;;;10.93;8.50;;;;;;;9.48;83.12;100176.04;1760485;79;21181;-52
2021/03/18 10:20:13;;;;;;;10.88;8.45;;;;;;;9.63;82.04;100160.52;1760608;80;21189;-52
2021/03/18 10:23:02;;;;;;;12.20;8.33;;;;;;;9.76;80.89;100157.30;1804793;78;21119;-53
2021/03/18 10:25:32;;;;;;;9.45;8.00;;;;;;;9.86;79.71;100154.96;1793933;78;21111;-52
2021/03/18 10:28:12;;;;;;;8.58;7.62;;;;;;;9.98;78.43;100160.48;1759526;80;21151;-53
2021/03/18 10:30:50;;;;;;;9.55;7.58;;;;;;;10.11;77.30;100157.19;1765787;80;21115;-53
2021/03/18 10:33:22;;;;;;;8.98;7.67;;;;;;;10.21;75.90;100162.73;1764142;80;21242;-52
2021/03/18 10:35:59;;;;;;;9.08;7.65;;;;;;;10.28;74.51;100160.43;1763620;79;21167;-53
2021/03/18 10:38:37;;;;;;;9.40;7.20;;;;;;;10.33;73.31;100150.75;1750504;80;22060;-53
2021/03/18 10:41:10;;;;;;;8.78;7.25;;;;;;;10.42;72.10;100153.69;1789784;78;21257;-52
2021/03/18 10:43:47;;;;;;;9.20;6.90;;;;;;;10.55;70.45;100163.52;1856012;75;22324;-53
2021/03/18 10:46:18;;;;;;;7.65;6.25;;;;;;;10.59;69.34;100166.98;1760900;79;21659;-53
2021/03/18 10:48:49;;;;;;;8.50;6.40;;;;;;;10.66;68.28;100171.22;1775005;78;21208;-54
2021/03/18 10:51:19;;;;;;;7.42;5.97;;;;;;;10.71;67.44;100174.66;1756120;80;21190;-53
2021/03/18 10:53:53;;;;;;;8.98;6.65;;;;;;;10.73;66.48;100163.21;1766000;79;21174;-53
2021/03/18 10:56:26;;;;;;;6.25;5.60;;;;;;;10.77;65.88;100165.33;1759150;80;21175;-53
2021/03/18 10:58:56;;;;;;;8.48;6.03;;;;;;;10.83;65.28;100156.46;1767910;79;21201;-55
2021/03/18 11:01:26;;;;;;;7.35;6.60;;;;;;;10.88;64.82;100170.38;1757625;80;22060;-53
2021/03/18 11:04:05;;;;;;;6.67;5.85;;;;;;;10.92;64.42;100162.86;1763053;80;21134;-54
2021/03/18 11:06:33;;;;;;;8.30;6.17;;;;;;;10.98;64.16;100167.14;1761111;79;21116;-53
2021/03/18 11:09:01;;;;;;;6.40;5.65;;;;;;;11.03;63.71;100166.59;1792201;78;21773;-54
2021/03/18 11:11:31;;;;;;;8.85;7.00;;;;;;;11.05;63.43;100170.08;1757197;79;21555;-54
2021/03/18 11:14:11;;;;;;;6.58;5.92;;;;;;;11.09;63.12;100166.50;1770442;79;21349;-54
2021/03/18 11:16:41;;;;;;;6.55;5.53;;;;;;;11.13;62.87;100180.46;1764681;80;21182;-54
2021/03/18 11:19:13;;;;;;;7.25;5.75;;;;;;;11.17;62.44;100176.41;1763858;80;21221;-54
2021/03/18 11:21:42;;;;;;;8.68;5.78;;;;;;;11.19;62.28;100164.11;1760304;79;21267;-53
2021/03/18 11:24:20;;;;;;;7.15;6.00;;;;;;;11.24;62.05;100167.50;1760435;80;21734;-54
2021/03/18 11:27:01;;;;;;;7.53;6.03;;;;;;;11.31;61.77;100166.05;1789315;78;21995;-53
2021/03/18 11:29:31;;;;;;;7.08;5.72;;;;;;;11.36;61.60;100175.61;1758742;80;21201;-54
2021/03/18 11:32:01;;;;;;;6.60;5.80;;;;;;;11.43;61.45;100173.27;1756675;80;21178;-53
2021/03/18 11:34:35;;;;;;;6.90;5.55;;;;;;;11.48;61.21;100167.05;1765631;79;23398;-53
2021/03/18 11:37:09;;;;;;;7.15;5.28;;;;;;;11.53;61.12;100162.53;1753601;80;21209;-52
2021/03/18 11:39:37;;;;;;;6.87;6.00;;;;;;;11.59;60.88;100168.55;1767465;78;22326;-52
2021/03/18 11:42:05;;;;;;;6.95;5.78;;;;;;;11.61;60.52;100160.15;1765225;79;21896;-52
2021/03/18 11:44:33;;;;;;;6.20;5.50;;;;;;;11.64;60.40;100167.13;1794276;78;21118;-52
2021/03/18 11:47:09;;;;;;;7.75;6.17;;;;;;;11.66;60.24;100169.73;1763739;79;21183;-53
2021/03/18 11:49:40;;;;;;;5.25;4.67;;;;;;;11.68;60.20;100159.55;1762586;80;21232;-52
2021/03/18 11:52:07;;;;;;;6.97;6.10;;;;;;;11.73;59.95;100170.88;1762602;80;21194;-52
2021/03/18 11:54:35;;;;;;;5.90;5.30;;;;;;;11.78;59.91;100165.50;1791850;78;21210;-69
2021/03/18 11:57:05;;;;;;;6.92;5.45;;;;;;;11.83;59.66;100175.93;1766701;80;21522;-69
2021/03/18 11:59:34;;;;;;;6.60;5.72;;;;;;;11.86;59.54;100162.25;1793505;78;21134;-53